sensor_id;sensor_type;location;lat;lon;timestamp;P1;durP1;ratioP1;P2;durP2;ratioP2
3050;SDS011;1535;51.098;6.414;2022-09-12T00:01:08;22.13;;;20.17;;
3050;SDS011;1535;51.098;6.414;2022-09-12T00:03:36;25.43;;;22.90;;
3050;SDS011;1535;51.098;6.414;2022-09-12T00:06:08;21.63;;;19.83;;
3050;SDS011;1535;51.098;6.414;2022-09-12T00:08:37;21.90;;;19.80;;
3050;SDS011;1535;51.098;6.414;2022-09-12T00:11:07;21.70;;;19.90;;
3050;SDS011;1535;51.098;6.414;2022-09-12T00:13:36;23.43;;;21.37;;
3050;SDS011;1535;51.098;6.414;2022-09-12T00:16:06;23.50;;;21.10;;
3050;SDS011;1535;51.098;6.414;2022-09-12T00:18:38;21.83;;;20.03;;
3050;SDS011;1535;51.098;6.414;2022-09-12T00:21:06;23.10;;;20.80;;
3050;SDS011;1535;51.098;6.414;2022-09-12T00:23:33;23.10;;;20.90;;
3050;SDS011;1535;51.098;6.414;2022-09-12T00:26:02;22.40;;;20.30;;
3050;SDS011;1535;51.098;6.414;2022-09-12T00:28:34;21.20;;;19.20;;
3050;SDS011;1535;51.098;6.414;2022-09-12T00:31:03;23.67;;;21.50;;
3050;SDS011;1535;51.098;6.414;2022-09-12T00:33:31;27.33;;;23.20;;
3050;SDS011;1535;51.098;6.414;2022-09-12T00:35:59;24.20;;;21.90;;
3050;SDS011;1535;51.098;6.414;2022-09-12T00:38:30;22.83;;;20.80;;
3050;SDS011;1535;51.098;6.414;2022-09-12T00:40:57;23.77;;;21.67;;
3050;SDS011;1535;51.098;6.414;2022-09-12T00:43:37;22.20;;;19.87;;
3050;SDS011;1535;51.098;6.414;2022-09-12T00:46:08;35.33;;;23.40;;
3050;SDS011;1535;51.098;6.414;2022-09-12T00:48:43;25.03;;;22.53;;
3050;SDS011;1535;51.098;6.414;2022-09-12T00:51:15;25.00;;;22.43;;
3050;SDS011;1535;51.098;6.414;2022-09-12T00:53:44;30.10;;;25.60;;
3050;SDS011;1535;51.098;6.414;2022-09-12T00:56:14;24.77;;;22.57;;
3050;SDS011;1535;51.098;6.414;2022-09-12T00:58:45;22.90;;;20.57;;
3050;SDS011;1535;51.098;6.414;2022-09-12T01:01:16;24.63;;;22.13;;
3050;SDS011;1535;51.098;6.414;2022-09-12T01:03:43;24.80;;;22.37;;
3050;SDS011;1535;51.098;6.414;2022-09-12T01:06:13;23.27;;;21.00;;
3050;SDS011;1535;51.098;6.414;2022-09-12T01:08:43;22.27;;;19.33;;
3050;SDS011;1535;51.098;6.414;2022-09-12T01:11:12;23.10;;;20.87;;
3050;SDS011;1535;51.098;6.414;2022-09-12T01:13:40;21.80;;;19.80;;
3050;SDS011;1535;51.098;6.414;2022-09-12T01:16:09;24.80;;;20.10;;
3050;SDS011;1535;51.098;6.414;2022-09-12T01:18:40;23.73;;;21.03;;
3050;SDS011;1535;51.098;6.414;2022-09-12T01:21:21;23.80;;;21.60;;
3050;SDS011;1535;51.098;6.414;2022-09-12T01:27:19;23.43;;;20.93;;
3050;SDS011;1535;51.098;6.414;2022-09-12T01:33:09;21.80;;;19.83;;
3050;SDS011;1535;51.098;6.414;2022-09-12T01:35:49;35.13;;;21.33;;
3050;SDS011;1535;51.098;6.414;2022-09-12T01:38:26;26.20;;;23.37;;
3050;SDS011;1535;51.098;6.414;2022-09-12T01:41:01;41.30;;;27.27;;
3050;SDS011;1535;51.098;6.414;2022-09-12T01:43:38;28.87;;;22.67;;
3050;SDS011;1535;51.098;6.414;2022-09-12T01:46:13;32.83;;;22.97;;
3050;SDS011;1535;51.098;6.414;2022-09-12T01:48:44;25.80;;;23.00;;
3050;SDS011;1535;51.098;6.414;2022-09-12T01:51:17;24.97;;;22.07;;
3050;SDS011;1535;51.098;6.414;2022-09-12T01:53:48;26.60;;;21.27;;
3050;SDS011;1535;51.098;6.414;2022-09-12T01:56:20;24.23;;;21.77;;
3050;SDS011;1535;51.098;6.414;2022-09-12T01:58:51;24.97;;;21.80;;
3050;SDS011;1535;51.098;6.414;2022-09-12T02:01:25;21.90;;;19.60;;
3050;SDS011;1535;51.098;6.414;2022-09-12T02:03:56;23.70;;;21.20;;
3050;SDS011;1535;51.098;6.414;2022-09-12T02:06:28;23.70;;;21.13;;
3050;SDS011;1535;51.098;6.414;2022-09-12T02:08:58;25.90;;;21.67;;
3050;SDS011;1535;51.098;6.414;2022-09-12T02:11:32;21.53;;;19.40;;
3050;SDS011;1535;51.098;6.414;2022-09-12T02:14:02;21.73;;;19.63;;
3050;SDS011;1535;51.098;6.414;2022-09-12T02:16:33;23.30;;;20.80;;
3050;SDS011;1535;51.098;6.414;2022-09-12T02:19:07;23.67;;;21.37;;
3050;SDS011;1535;51.098;6.414;2022-09-12T02:21:38;34.93;;;26.43;;
3050;SDS011;1535;51.098;6.414;2022-09-12T02:24:09;22.40;;;20.00;;
3050;SDS011;1535;51.098;6.414;2022-09-12T02:26:43;23.27;;;20.50;;
3050;SDS011;1535;51.098;6.414;2022-09-12T02:29:13;27.50;;;20.37;;
3050;SDS011;1535;51.098;6.414;2022-09-12T02:31:43;26.90;;;20.97;;
3050;SDS011;1535;51.098;6.414;2022-09-12T02:34:15;22.70;;;20.47;;
3050;SDS011;1535;51.098;6.414;2022-09-12T02:36:59;27.93;;;22.73;;
3050;SDS011;1535;51.098;6.414;2022-09-12T02:39:32;32.57;;;23.23;;
3050;SDS011;1535;51.098;6.414;2022-09-12T02:41:59;30.40;;;23.77;;
3050;SDS011;1535;51.098;6.414;2022-09-12T02:44:28;30.30;;;23.60;;
3050;SDS011;1535;51.098;6.414;2022-09-12T02:46:57;36.77;;;25.93;;
3050;SDS011;1535;51.098;6.414;2022-09-12T02:49:29;31.63;;;24.73;;
3050;SDS011;1535;51.098;6.414;2022-09-12T02:51:58;29.27;;;24.13;;
3050;SDS011;1535;51.098;6.414;2022-09-12T02:54:27;23.20;;;20.93;;
3050;SDS011;1535;51.098;6.414;2022-09-12T02:56:55;24.10;;;20.60;;
3050;SDS011;1535;51.098;6.414;2022-09-12T02:59:23;22.90;;;20.53;;
3050;SDS011;1535;51.098;6.414;2022-09-12T03:01:55;24.77;;;22.17;;
3050;SDS011;1535;51.098;6.414;2022-09-12T03:04:45;27.43;;;22.40;;
3050;SDS011;1535;51.098;6.414;2022-09-12T03:07:19;28.90;;;24.23;;
3050;SDS011;1535;51.098;6.414;2022-09-12T03:09:57;33.53;;;23.53;;
3050;SDS011;1535;51.098;6.414;2022-09-12T03:12:35;40.07;;;28.00;;
3050;SDS011;1535;51.098;6.414;2022-09-12T03:15:15;39.60;;;26.53;;
3050;SDS011;1535;51.098;6.414;2022-09-12T03:17:56;38.93;;;27.77;;
3050;SDS011;1535;51.098;6.414;2022-09-12T03:20:36;35.80;;;25.93;;
3050;SDS011;1535;51.098;6.414;2022-09-12T03:23:12;42.00;;;27.70;;
3050;SDS011;1535;51.098;6.414;2022-09-12T03:25:48;36.17;;;24.67;;
3050;SDS011;1535;51.098;6.414;2022-09-12T03:28:19;43.47;;;26.20;;
3050;SDS011;1535;51.098;6.414;2022-09-12T03:30:48;42.77;;;26.50;;
3050;SDS011;1535;51.098;6.414;2022-09-12T03:33:19;35.10;;;24.87;;
3050;SDS011;1535;51.098;6.414;2022-09-12T03:35:50;32.53;;;24.40;;
3050;SDS011;1535;51.098;6.414;2022-09-12T03:38:18;38.17;;;24.33;;
3050;SDS011;1535;51.098;6.414;2022-09-12T03:40:45;37.90;;;27.83;;
3050;SDS011;1535;51.098;6.414;2022-09-12T03:43:13;64.47;;;36.10;;
3050;SDS011;1535;51.098;6.414;2022-09-12T03:45:40;54.80;;;32.50;;
3050;SDS011;1535;51.098;6.414;2022-09-12T03:48:07;70.37;;;36.13;;
3050;SDS011;1535;51.098;6.414;2022-09-12T03:50:34;65.60;;;36.20;;
3050;SDS011;1535;51.098;6.414;2022-09-12T03:53:03;76.70;;;41.60;;
3050;SDS011;1535;51.098;6.414;2022-09-12T03:55:30;54.73;;;34.40;;
3050;SDS011;1535;51.098;6.414;2022-09-12T03:57:58;51.60;;;34.53;;
3050;SDS011;1535;51.098;6.414;2022-09-12T04:00:25;59.37;;;35.67;;
3050;SDS011;1535;51.098;6.414;2022-09-12T04:02:52;65.50;;;36.43;;
3050;SDS011;1535;51.098;6.414;2022-09-12T04:05:20;68.63;;;39.57;;
3050;SDS011;1535;51.098;6.414;2022-09-12T04:07:48;56.97;;;35.10;;
3050;SDS011;1535;51.098;6.414;2022-09-12T04:10:17;54.53;;;32.80;;
3050;SDS011;1535;51.098;6.414;2022-09-12T04:12:43;52.43;;;32.97;;
3050;SDS011;1535;51.098;6.414;2022-09-12T04:15:10;47.63;;;32.97;;
3050;SDS011;1535;51.098;6.414;2022-09-12T04:17:37;64.60;;;34.03;;
3050;SDS011;1535;51.098;6.414;2022-09-12T04:20:04;47.47;;;33.53;;
3050;SDS011;1535;51.098;6.414;2022-09-12T04:22:31;54.93;;;34.13;;
3050;SDS011;1535;51.098;6.414;2022-09-12T04:24:58;60.57;;;35.87;;
3050;SDS011;1535;51.098;6.414;2022-09-12T04:27:26;63.93;;;38.17;;
3050;SDS011;1535;51.098;6.414;2022-09-12T04:29:53;55.60;;;37.57;;
3050;SDS011;1535;51.098;6.414;2022-09-12T04:32:20;56.80;;;37.37;;
3050;SDS011;1535;51.098;6.414;2022-09-12T04:34:47;61.07;;;38.90;;
3050;SDS011;1535;51.098;6.414;2022-09-12T04:37:14;59.83;;;36.77;;
3050;SDS011;1535;51.098;6.414;2022-09-12T04:39:40;66.23;;;39.67;;
3050;SDS011;1535;51.098;6.414;2022-09-12T04:42:08;62.43;;;37.67;;
3050;SDS011;1535;51.098;6.414;2022-09-12T04:44:36;51.93;;;37.20;;
3050;SDS011;1535;51.098;6.414;2022-09-12T04:47:03;68.57;;;40.00;;
3050;SDS011;1535;51.098;6.414;2022-09-12T04:49:30;59.23;;;37.83;;
3050;SDS011;1535;51.098;6.414;2022-09-12T04:51:57;74.07;;;41.67;;
3050;SDS011;1535;51.098;6.414;2022-09-12T04:54:24;70.50;;;42.37;;
3050;SDS011;1535;51.098;6.414;2022-09-12T04:56:51;72.27;;;40.87;;
3050;SDS011;1535;51.098;6.414;2022-09-12T04:59:19;60.77;;;39.90;;
3050;SDS011;1535;51.098;6.414;2022-09-12T05:01:48;57.90;;;37.53;;
3050;SDS011;1535;51.098;6.414;2022-09-12T05:04:15;61.13;;;39.17;;
3050;SDS011;1535;51.098;6.414;2022-09-12T05:06:42;60.00;;;38.90;;
3050;SDS011;1535;51.098;6.414;2022-09-12T05:09:11;60.00;;;37.57;;
3050;SDS011;1535;51.098;6.414;2022-09-12T05:11:39;74.40;;;41.47;;
3050;SDS011;1535;51.098;6.414;2022-09-12T05:14:08;66.80;;;42.30;;
3050;SDS011;1535;51.098;6.414;2022-09-12T05:16:36;68.53;;;40.00;;
3050;SDS011;1535;51.098;6.414;2022-09-12T05:19:04;58.10;;;39.37;;
3050;SDS011;1535;51.098;6.414;2022-09-12T05:21:31;53.10;;;37.70;;
3050;SDS011;1535;51.098;6.414;2022-09-12T05:23:59;58.30;;;38.93;;
3050;SDS011;1535;51.098;6.414;2022-09-12T05:26:26;58.23;;;38.40;;
3050;SDS011;1535;51.098;6.414;2022-09-12T05:28:53;66.23;;;38.73;;
3050;SDS011;1535;51.098;6.414;2022-09-12T05:31:21;64.30;;;40.07;;
3050;SDS011;1535;51.098;6.414;2022-09-12T05:33:49;62.00;;;40.83;;
3050;SDS011;1535;51.098;6.414;2022-09-12T05:36:20;63.33;;;39.60;;
3050;SDS011;1535;51.098;6.414;2022-09-12T05:38:48;63.80;;;39.03;;
3050;SDS011;1535;51.098;6.414;2022-09-12T05:41:16;63.30;;;39.67;;
3050;SDS011;1535;51.098;6.414;2022-09-12T05:43:45;88.20;;;41.40;;
3050;SDS011;1535;51.098;6.414;2022-09-12T05:46:12;71.60;;;42.27;;
3050;SDS011;1535;51.098;6.414;2022-09-12T05:48:41;74.93;;;42.50;;
3050;SDS011;1535;51.098;6.414;2022-09-12T05:51:10;69.03;;;41.40;;
3050;SDS011;1535;51.098;6.414;2022-09-12T05:53:42;68.83;;;40.63;;
3050;SDS011;1535;51.098;6.414;2022-09-12T05:56:11;63.33;;;41.27;;
3050;SDS011;1535;51.098;6.414;2022-09-12T05:58:39;56.33;;;38.90;;
3050;SDS011;1535;51.098;6.414;2022-09-12T06:01:08;68.40;;;39.13;;
3050;SDS011;1535;51.098;6.414;2022-09-12T06:03:38;60.27;;;37.07;;
3050;SDS011;1535;51.098;6.414;2022-09-12T06:06:06;55.87;;;38.40;;
3050;SDS011;1535;51.098;6.414;2022-09-12T06:08:37;58.27;;;38.50;;
3050;SDS011;1535;51.098;6.414;2022-09-12T06:11:06;66.70;;;40.97;;
3050;SDS011;1535;51.098;6.414;2022-09-12T06:13:34;57.97;;;40.00;;
3050;SDS011;1535;51.098;6.414;2022-09-12T06:16:04;62.43;;;38.10;;
3050;SDS011;1535;51.098;6.414;2022-09-12T06:18:33;63.63;;;39.10;;
3050;SDS011;1535;51.098;6.414;2022-09-12T06:21:01;52.33;;;35.90;;
3050;SDS011;1535;51.098;6.414;2022-09-12T06:23:29;63.87;;;37.40;;
3050;SDS011;1535;51.098;6.414;2022-09-12T06:25:56;60.67;;;37.30;;
3050;SDS011;1535;51.098;6.414;2022-09-12T06:28:24;56.47;;;37.50;;
3050;SDS011;1535;51.098;6.414;2022-09-12T06:30:51;58.83;;;38.00;;
3050;SDS011;1535;51.098;6.414;2022-09-12T06:33:18;62.63;;;36.57;;
3050;SDS011;1535;51.098;6.414;2022-09-12T06:35:45;57.80;;;38.70;;
3050;SDS011;1535;51.098;6.414;2022-09-12T06:38:12;54.77;;;36.33;;
3050;SDS011;1535;51.098;6.414;2022-09-12T06:40:40;58.40;;;35.53;;
3050;SDS011;1535;51.098;6.414;2022-09-12T06:43:09;60.10;;;34.63;;
3050;SDS011;1535;51.098;6.414;2022-09-12T06:45:39;57.90;;;35.00;;
3050;SDS011;1535;51.098;6.414;2022-09-12T06:48:13;43.07;;;31.30;;
3050;SDS011;1535;51.098;6.414;2022-09-12T06:50:40;56.13;;;34.80;;
3050;SDS011;1535;51.098;6.414;2022-09-12T06:53:07;54.40;;;33.57;;
3050;SDS011;1535;51.098;6.414;2022-09-12T06:55:34;48.57;;;34.50;;
3050;SDS011;1535;51.098;6.414;2022-09-12T06:58:00;56.90;;;33.37;;
3050;SDS011;1535;51.098;6.414;2022-09-12T07:00:28;56.40;;;33.40;;
3050;SDS011;1535;51.098;6.414;2022-09-12T07:02:57;50.53;;;34.00;;
3050;SDS011;1535;51.098;6.414;2022-09-12T07:05:24;56.73;;;33.00;;
3050;SDS011;1535;51.098;6.414;2022-09-12T07:07:52;46.23;;;30.53;;
3050;SDS011;1535;51.098;6.414;2022-09-12T07:10:19;48.63;;;32.20;;
3050;SDS011;1535;51.098;6.414;2022-09-12T07:12:46;49.30;;;30.47;;
3050;SDS011;1535;51.098;6.414;2022-09-12T07:15:13;50.23;;;31.87;;
3050;SDS011;1535;51.098;6.414;2022-09-12T07:17:40;54.67;;;32.10;;
3050;SDS011;1535;51.098;6.414;2022-09-12T07:20:08;44.23;;;32.60;;
3050;SDS011;1535;51.098;6.414;2022-09-12T07:22:35;51.30;;;33.47;;
3050;SDS011;1535;51.098;6.414;2022-09-12T07:25:02;42.20;;;30.43;;
3050;SDS011;1535;51.098;6.414;2022-09-12T07:27:30;44.60;;;31.23;;
3050;SDS011;1535;51.098;6.414;2022-09-12T07:29:56;44.70;;;30.47;;
3050;SDS011;1535;51.098;6.414;2022-09-12T07:32:24;39.47;;;31.60;;
3050;SDS011;1535;51.098;6.414;2022-09-12T07:34:51;47.87;;;31.70;;
3050;SDS011;1535;51.098;6.414;2022-09-12T07:37:20;45.50;;;31.57;;
3050;SDS011;1535;51.098;6.414;2022-09-12T07:39:47;45.40;;;33.97;;
3050;SDS011;1535;51.098;6.414;2022-09-12T07:42:14;37.83;;;31.10;;
3050;SDS011;1535;51.098;6.414;2022-09-12T07:44:41;35.40;;;29.27;;
3050;SDS011;1535;51.098;6.414;2022-09-12T07:47:09;38.60;;;30.43;;
3050;SDS011;1535;51.098;6.414;2022-09-12T07:49:36;39.00;;;30.23;;
3050;SDS011;1535;51.098;6.414;2022-09-12T07:52:03;40.87;;;30.70;;
3050;SDS011;1535;51.098;6.414;2022-09-12T07:54:31;33.03;;;29.63;;
3050;SDS011;1535;51.098;6.414;2022-09-12T07:56:59;37.10;;;30.10;;
3050;SDS011;1535;51.098;6.414;2022-09-12T07:59:26;39.00;;;30.90;;
3050;SDS011;1535;51.098;6.414;2022-09-12T08:01:53;35.93;;;30.77;;
3050;SDS011;1535;51.098;6.414;2022-09-12T08:04:20;33.20;;;29.30;;
3050;SDS011;1535;51.098;6.414;2022-09-12T08:06:47;35.17;;;29.13;;
3050;SDS011;1535;51.098;6.414;2022-09-12T08:09:13;38.00;;;29.63;;
3050;SDS011;1535;51.098;6.414;2022-09-12T08:11:42;31.97;;;28.70;;
3050;SDS011;1535;51.098;6.414;2022-09-12T08:14:09;35.60;;;30.07;;
3050;SDS011;1535;51.098;6.414;2022-09-12T08:16:36;36.10;;;30.47;;
3050;SDS011;1535;51.098;6.414;2022-09-12T08:19:03;32.77;;;28.20;;
3050;SDS011;1535;51.098;6.414;2022-09-12T08:21:31;37.73;;;30.57;;
3050;SDS011;1535;51.098;6.414;2022-09-12T08:23:59;33.40;;;27.60;;
3050;SDS011;1535;51.098;6.414;2022-09-12T08:26:27;31.27;;;28.13;;
3050;SDS011;1535;51.098;6.414;2022-09-12T08:28:56;38.50;;;29.13;;
3050;SDS011;1535;51.098;6.414;2022-09-12T08:31:24;35.60;;;30.03;;
3050;SDS011;1535;51.098;6.414;2022-09-12T08:33:53;34.03;;;29.40;;
3050;SDS011;1535;51.098;6.414;2022-09-12T08:36:22;31.83;;;26.93;;
3050;SDS011;1535;51.098;6.414;2022-09-12T08:38:52;32.60;;;27.27;;
3050;SDS011;1535;51.098;6.414;2022-09-12T08:41:22;30.13;;;27.20;;
3050;SDS011;1535;51.098;6.414;2022-09-12T08:43:58;29.37;;;26.13;;
3050;SDS011;1535;51.098;6.414;2022-09-12T08:46:38;29.57;;;26.47;;
3050;SDS011;1535;51.098;6.414;2022-09-12T08:49:16;29.60;;;26.77;;
3050;SDS011;1535;51.098;6.414;2022-09-12T08:51:53;29.77;;;26.73;;
3050;SDS011;1535;51.098;6.414;2022-09-12T08:54:23;40.93;;;28.37;;
3050;SDS011;1535;51.098;6.414;2022-09-12T08:56:52;29.27;;;26.47;;
3050;SDS011;1535;51.098;6.414;2022-09-12T08:59:26;28.87;;;26.17;;
3050;SDS011;1535;51.098;6.414;2022-09-12T09:02:04;27.87;;;25.40;;
3050;SDS011;1535;51.098;6.414;2022-09-12T09:04:47;27.93;;;25.30;;
3050;SDS011;1535;51.098;6.414;2022-09-12T09:07:24;27.17;;;24.67;;
3050;SDS011;1535;51.098;6.414;2022-09-12T09:10:06;25.73;;;23.53;;
3050;SDS011;1535;51.098;6.414;2022-09-12T09:12:44;30.37;;;25.00;;
3050;SDS011;1535;51.098;6.414;2022-09-12T09:15:34;28.33;;;25.30;;
3050;SDS011;1535;51.098;6.414;2022-09-12T09:18:10;30.17;;;27.00;;
3050;SDS011;1535;51.098;6.414;2022-09-12T09:20:43;27.57;;;25.27;;
3050;SDS011;1535;51.098;6.414;2022-09-12T09:23:15;26.47;;;24.37;;
3050;SDS011;1535;51.098;6.414;2022-09-12T09:25:48;25.80;;;23.10;;
3050;SDS011;1535;51.098;6.414;2022-09-12T09:28:21;27.57;;;25.10;;
3050;SDS011;1535;51.098;6.414;2022-09-12T09:30:52;25.70;;;23.57;;
3050;SDS011;1535;51.098;6.414;2022-09-12T09:33:20;26.00;;;23.60;;
3050;SDS011;1535;51.098;6.414;2022-09-12T09:35:50;26.33;;;24.23;;
3050;SDS011;1535;51.098;6.414;2022-09-12T09:38:27;24.43;;;22.53;;
3050;SDS011;1535;51.098;6.414;2022-09-12T09:41:06;27.77;;;25.07;;
3050;SDS011;1535;51.098;6.414;2022-09-12T09:43:42;26.70;;;24.33;;
3050;SDS011;1535;51.098;6.414;2022-09-12T09:46:11;26.03;;;23.93;;
3050;SDS011;1535;51.098;6.414;2022-09-12T09:48:39;27.17;;;24.63;;
3050;SDS011;1535;51.098;6.414;2022-09-12T09:51:09;25.63;;;23.27;;
3050;SDS011;1535;51.098;6.414;2022-09-12T09:53:38;26.23;;;24.23;;
3050;SDS011;1535;51.098;6.414;2022-09-12T09:56:14;24.90;;;22.70;;
3050;SDS011;1535;51.098;6.414;2022-09-12T09:58:51;25.60;;;23.30;;
3050;SDS011;1535;51.098;6.414;2022-09-12T10:01:19;24.97;;;23.37;;
3050;SDS011;1535;51.098;6.414;2022-09-12T10:03:47;24.97;;;23.07;;
3050;SDS011;1535;51.098;6.414;2022-09-12T10:06:21;23.40;;;21.30;;
3050;SDS011;1535;51.098;6.414;2022-09-12T10:08:51;24.37;;;22.47;;
3050;SDS011;1535;51.098;6.414;2022-09-12T10:11:31;24.80;;;22.90;;
3050;SDS011;1535;51.098;6.414;2022-09-12T10:13:58;23.70;;;21.90;;
3050;SDS011;1535;51.098;6.414;2022-09-12T10:16:27;22.00;;;20.30;;
3050;SDS011;1535;51.098;6.414;2022-09-12T10:18:55;21.90;;;20.30;;
3050;SDS011;1535;51.098;6.414;2022-09-12T10:21:26;22.90;;;21.40;;
3050;SDS011;1535;51.098;6.414;2022-09-12T10:24:00;22.17;;;20.67;;
3050;SDS011;1535;51.098;6.414;2022-09-12T10:26:31;22.10;;;20.70;;
3050;SDS011;1535;51.098;6.414;2022-09-12T10:29:08;21.33;;;20.13;;
3050;SDS011;1535;51.098;6.414;2022-09-12T10:31:45;20.80;;;19.00;;
3050;SDS011;1535;51.098;6.414;2022-09-12T10:34:23;19.83;;;18.80;;
3050;SDS011;1535;51.098;6.414;2022-09-12T10:36:57;20.27;;;18.97;;
3050;SDS011;1535;51.098;6.414;2022-09-12T10:39:27;19.07;;;17.97;;
3050;SDS011;1535;51.098;6.414;2022-09-12T10:41:56;20.83;;;19.50;;
3050;SDS011;1535;51.098;6.414;2022-09-12T10:44:24;20.47;;;18.97;;
3050;SDS011;1535;51.098;6.414;2022-09-12T10:46:54;19.70;;;18.40;;
3050;SDS011;1535;51.098;6.414;2022-09-12T10:49:23;21.20;;;19.70;;
3050;SDS011;1535;51.098;6.414;2022-09-12T10:51:52;19.90;;;18.70;;
3050;SDS011;1535;51.098;6.414;2022-09-12T10:54:21;19.47;;;18.37;;
3050;SDS011;1535;51.098;6.414;2022-09-12T10:57:04;19.03;;;18.00;;
3050;SDS011;1535;51.098;6.414;2022-09-12T10:59:57;17.67;;;16.77;;
3050;SDS011;1535;51.098;6.414;2022-09-12T11:02:37;17.30;;;16.40;;
3050;SDS011;1535;51.098;6.414;2022-09-12T11:05:34;18.70;;;17.70;;
3050;SDS011;1535;51.098;6.414;2022-09-12T11:08:21;18.47;;;17.23;;
3050;SDS011;1535;51.098;6.414;2022-09-12T11:10:58;19.60;;;18.27;;
3050;SDS011;1535;51.098;6.414;2022-09-12T11:13:39;19.17;;;18.07;;
3050;SDS011;1535;51.098;6.414;2022-09-12T11:16:24;18.73;;;17.63;;
3050;SDS011;1535;51.098;6.414;2022-09-12T11:22:12;17.87;;;17.00;;
3050;SDS011;1535;51.098;6.414;2022-09-12T11:25:00;19.43;;;17.90;;
3050;SDS011;1535;51.098;6.414;2022-09-12T11:27:42;18.50;;;17.30;;
3050;SDS011;1535;51.098;6.414;2022-09-12T11:30:16;19.67;;;18.17;;
3050;SDS011;1535;51.098;6.414;2022-09-12T11:32:54;19.23;;;18.03;;
3050;SDS011;1535;51.098;6.414;2022-09-12T11:35:34;18.50;;;17.60;;
3050;SDS011;1535;51.098;6.414;2022-09-12T11:41:08;18.77;;;17.70;;
3050;SDS011;1535;51.098;6.414;2022-09-12T11:43:44;18.00;;;17.00;;
3050;SDS011;1535;51.098;6.414;2022-09-12T11:46:16;18.53;;;17.43;;
3050;SDS011;1535;51.098;6.414;2022-09-12T11:48:48;18.60;;;17.70;;
3050;SDS011;1535;51.098;6.414;2022-09-12T11:51:22;17.90;;;17.00;;
3050;SDS011;1535;51.098;6.414;2022-09-12T11:53:59;18.13;;;17.23;;
3050;SDS011;1535;51.098;6.414;2022-09-12T11:56:31;17.80;;;16.90;;
3050;SDS011;1535;51.098;6.414;2022-09-12T11:59:04;17.07;;;16.07;;
3050;SDS011;1535;51.098;6.414;2022-09-12T12:01:39;18.00;;;17.00;;
3050;SDS011;1535;51.098;6.414;2022-09-12T12:04:10;18.03;;;17.03;;
3050;SDS011;1535;51.098;6.414;2022-09-12T12:06:42;17.30;;;16.40;;
3050;SDS011;1535;51.098;6.414;2022-09-12T12:09:16;16.83;;;16.03;;
3050;SDS011;1535;51.098;6.414;2022-09-12T12:11:43;17.73;;;16.63;;
3050;SDS011;1535;51.098;6.414;2022-09-12T12:14:15;16.80;;;15.80;;
3050;SDS011;1535;51.098;6.414;2022-09-12T12:16:45;17.20;;;16.37;;
3050;SDS011;1535;51.098;6.414;2022-09-12T12:19:22;18.10;;;16.90;;
3050;SDS011;1535;51.098;6.414;2022-09-12T12:22:06;17.20;;;16.30;;
3050;SDS011;1535;51.098;6.414;2022-09-12T12:24:52;16.93;;;16.10;;
3050;SDS011;1535;51.098;6.414;2022-09-12T12:27:23;16.57;;;15.70;;
3050;SDS011;1535;51.098;6.414;2022-09-12T12:36:38;17.13;;;16.17;;
3050;SDS011;1535;51.098;6.414;2022-09-12T12:51:34;17.00;;;16.20;;
3050;SDS011;1535;51.098;6.414;2022-09-12T12:54:04;17.03;;;16.23;;
3050;SDS011;1535;51.098;6.414;2022-09-12T12:57:00;16.87;;;15.97;;
3050;SDS011;1535;51.098;6.414;2022-09-12T12:59:29;16.83;;;15.83;;
3050;SDS011;1535;51.098;6.414;2022-09-12T13:01:57;16.90;;;15.90;;
3050;SDS011;1535;51.098;6.414;2022-09-12T13:04:26;16.83;;;15.80;;
3050;SDS011;1535;51.098;6.414;2022-09-12T13:06:56;22.93;;;16.50;;
3050;SDS011;1535;51.098;6.414;2022-09-12T13:09:26;16.93;;;15.70;;
3050;SDS011;1535;51.098;6.414;2022-09-12T13:12:04;17.00;;;16.20;;
3050;SDS011;1535;51.098;6.414;2022-09-12T13:14:35;17.10;;;15.83;;
3050;SDS011;1535;51.098;6.414;2022-09-12T13:17:13;16.93;;;16.13;;
3050;SDS011;1535;51.098;6.414;2022-09-12T13:19:47;17.37;;;16.50;;
3050;SDS011;1535;51.098;6.414;2022-09-12T13:22:15;16.93;;;16.03;;
3050;SDS011;1535;51.098;6.414;2022-09-12T13:24:42;16.27;;;15.40;;
3050;SDS011;1535;51.098;6.414;2022-09-12T13:27:17;16.47;;;15.57;;
3050;SDS011;1535;51.098;6.414;2022-09-12T13:29:46;17.07;;;16.20;;
3050;SDS011;1535;51.098;6.414;2022-09-12T13:32:12;16.70;;;15.70;;
3050;SDS011;1535;51.098;6.414;2022-09-12T13:34:45;16.40;;;15.60;;
3050;SDS011;1535;51.098;6.414;2022-09-12T13:40:17;18.00;;;16.83;;
3050;SDS011;1535;51.098;6.414;2022-09-12T13:43:03;17.10;;;16.10;;
3050;SDS011;1535;51.098;6.414;2022-09-12T13:45:37;17.63;;;16.40;;
3050;SDS011;1535;51.098;6.414;2022-09-12T13:48:05;17.50;;;16.60;;
3050;SDS011;1535;51.098;6.414;2022-09-12T13:50:38;17.17;;;16.37;;
3050;SDS011;1535;51.098;6.414;2022-09-12T13:53:10;16.23;;;15.20;;
3050;SDS011;1535;51.098;6.414;2022-09-12T13:55:40;22.83;;;16.43;;
3050;SDS011;1535;51.098;6.414;2022-09-12T13:58:16;16.70;;;15.90;;
3050;SDS011;1535;51.098;6.414;2022-09-12T14:00:59;17.27;;;16.37;;
3050;SDS011;1535;51.098;6.414;2022-09-12T14:03:28;17.63;;;16.50;;
3050;SDS011;1535;51.098;6.414;2022-09-12T14:06:13;16.10;;;15.03;;
3050;SDS011;1535;51.098;6.414;2022-09-12T14:08:43;16.60;;;15.80;;
3050;SDS011;1535;51.098;6.414;2022-09-12T14:11:14;16.30;;;15.50;;
3050;SDS011;1535;51.098;6.414;2022-09-12T14:13:49;16.37;;;15.47;;
3050;SDS011;1535;51.098;6.414;2022-09-12T14:16:16;16.00;;;15.10;;
3050;SDS011;1535;51.098;6.414;2022-09-12T14:18:45;16.10;;;15.20;;
3050;SDS011;1535;51.098;6.414;2022-09-12T14:21:15;17.03;;;15.90;;
3050;SDS011;1535;51.098;6.414;2022-09-12T14:23:55;16.37;;;15.67;;
3050;SDS011;1535;51.098;6.414;2022-09-12T14:26:22;15.47;;;14.80;;
3050;SDS011;1535;51.098;6.414;2022-09-12T14:28:54;16.33;;;15.53;;
3050;SDS011;1535;51.098;6.414;2022-09-12T14:31:21;15.87;;;15.17;;
3050;SDS011;1535;51.098;6.414;2022-09-12T14:33:51;15.90;;;15.20;;
3050;SDS011;1535;51.098;6.414;2022-09-12T14:36:21;16.33;;;15.53;;
3050;SDS011;1535;51.098;6.414;2022-09-12T14:38:50;16.63;;;15.83;;
3050;SDS011;1535;51.098;6.414;2022-09-12T14:41:21;16.97;;;15.90;;
3050;SDS011;1535;51.098;6.414;2022-09-12T14:43:51;16.10;;;15.30;;
3050;SDS011;1535;51.098;6.414;2022-09-12T14:46:23;16.80;;;15.90;;
3050;SDS011;1535;51.098;6.414;2022-09-12T14:48:55;17.63;;;16.23;;
3050;SDS011;1535;51.098;6.414;2022-09-12T14:51:26;16.90;;;16.00;;
3050;SDS011;1535;51.098;6.414;2022-09-12T14:53:56;16.63;;;15.83;;
3050;SDS011;1535;51.098;6.414;2022-09-12T14:56:35;16.80;;;16.00;;
3050;SDS011;1535;51.098;6.414;2022-09-12T14:59:25;16.47;;;15.67;;
3050;SDS011;1535;51.098;6.414;2022-09-12T15:04:46;16.40;;;15.70;;
3050;SDS011;1535;51.098;6.414;2022-09-12T15:07:15;16.90;;;15.90;;
3050;SDS011;1535;51.098;6.414;2022-09-12T15:09:50;17.07;;;16.27;;
3050;SDS011;1535;51.098;6.414;2022-09-12T15:12:17;16.37;;;15.67;;
3050;SDS011;1535;51.098;6.414;2022-09-12T15:14:45;16.63;;;15.87;;
3050;SDS011;1535;51.098;6.414;2022-09-12T15:17:12;16.90;;;16.10;;
3050;SDS011;1535;51.098;6.414;2022-09-12T15:19:39;17.80;;;16.33;;
3050;SDS011;1535;51.098;6.414;2022-09-12T15:22:07;17.10;;;16.30;;
3050;SDS011;1535;51.098;6.414;2022-09-12T15:24:35;22.07;;;16.63;;
3050;SDS011;1535;51.098;6.414;2022-09-12T15:27:04;16.97;;;16.10;;
3050;SDS011;1535;51.098;6.414;2022-09-12T15:29:34;16.60;;;15.60;;
3050;SDS011;1535;51.098;6.414;2022-09-12T15:32:03;16.27;;;15.57;;
3050;SDS011;1535;51.098;6.414;2022-09-12T15:34:31;17.00;;;16.00;;
3050;SDS011;1535;51.098;6.414;2022-09-12T15:36:58;16.27;;;15.37;;
3050;SDS011;1535;51.098;6.414;2022-09-12T15:39:25;16.10;;;15.30;;
3050;SDS011;1535;51.098;6.414;2022-09-12T15:41:51;18.13;;;16.70;;
3050;SDS011;1535;51.098;6.414;2022-09-12T15:44:19;16.47;;;15.77;;
3050;SDS011;1535;51.098;6.414;2022-09-12T15:46:47;17.43;;;16.43;;
3050;SDS011;1535;51.098;6.414;2022-09-12T15:49:15;17.57;;;16.57;;